Time;durP1;ratioP1;P1;durP2;ratioP2;P2;SDS_P1;SDS_P2;PMS_P1;PMS_P2;Temp;Humidity;BMP_temperature;BMP_pressure;BME280_temperature;BME280_humidity;BME280_pressure;Samples;Min_cycle;Max_cycle;Signal;HPM_P1;HPM_P2
2022/05/04 00:00:53;;;;;;;9.07;3.10;;;;;;;19.48;45.34;100337.41;5120168;27;20047;-79
2022/05/04 00:03:20;;;;;;;4.32;2.72;;;;;;;19.17;45.37;100279.22;5113771;28;20075;-78
2022/05/04 00:05:48;;;;;;;4.30;2.58;;;;;;;19.49;45.00;100335.44;5097089;28;20094;-76
2022/05/04 00:08:16;;;;;;;6.45;2.97;;;;;;;19.42;45.04;100316.16;5104790;28;20582;-76
2022/05/04 00:10:43;;;;;;;6.30;3.20;;;;;;;19.48;44.79;100326.09;5112448;28;20505;-76
2022/05/04 00:13:11;;;;;;;5.45;3.05;;;;;;;19.36;44.67;100309.06;5112195;28;20043;-76
2022/05/04 00:15:37;;;;;;;6.28;2.83;;;;;;;19.40;44.60;100315.69;5111575;28;20532;-77
2022/05/04 00:18:04;;;;;;;5.57;3.20;;;;;;;19.37;44.49;100311.53;5112575;28;20047;-77
2022/05/04 00:20:31;;;;;;;3.72;2.38;;;;;;;19.39;44.27;100320.50;5113699;28;20168;-77
2022/05/04 00:22:58;;;;;;;4.57;2.83;;;;;;;19.45;44.37;100335.28;5112543;28;20097;-78
2022/05/04 00:25:25;;;;;;;5.32;2.55;;;;;;;19.50;44.20;100315.25;5107296;28;20499;-78
2022/05/04 00:27:52;;;;;;;3.83;2.15;;;;;;;19.61;43.94;100333.47;5112061;28;20067;-77
2022/05/04 00:30:19;;;;;;;5.53;2.38;;;;;;;19.59;43.44;100316.00;5112232;28;20075;-78
2022/05/04 00:32:47;;;;;;;5.15;2.88;;;;;;;19.56;43.71;100302.53;5149817;27;20083;-78
2022/05/04 00:35:14;;;;;;;8.18;3.08;;;;;;;19.75;43.61;100343.72;5114769;27;20036;-75
2022/05/04 00:37:40;;;;;;;6.53;2.70;;;;;;;19.71;43.70;100337.09;5114627;27;20130;-76
2022/05/04 00:40:08;;;;;;;7.35;3.15;;;;;;;19.54;43.73;100316.22;5115602;28;20065;-76
2022/05/04 00:42:35;;;;;;;8.35;3.28;;;;;;;19.38;43.96;100313.19;5115583;28;20101;-74
2022/05/04 00:45:02;;;;;;;5.35;2.85;;;;;;;19.50;43.73;100332.25;5112720;28;20075;-75
2022/05/04 00:47:29;;;;;;;4.60;2.38;;;;;;;19.32;43.62;100314.59;5114744;28;20130;-74
2022/05/04 00:49:56;;;;;;;5.65;2.97;;;;;;;19.28;43.44;100302.28;5111103;28;20521;-75
2022/05/04 00:52:23;;;;;;;3.53;2.38;;;;;;;19.47;43.25;100332.94;5103890;28;20547;-75
2022/05/04 00:54:52;;;;;;;4.15;2.58;;;;;;;19.49;43.08;100333.44;5115788;27;20071;-76
2022/05/04 01:00:09;;;;;;;5.80;2.70;;;;;;;19.52;43.07;100321.41;5113574;27;20478;-74
2022/05/04 01:02:40;;;;;;;5.10;2.47;;;;;;;19.43;43.07;100315.00;5112271;27;20044;-76
2022/05/04 01:05:09;;;;;;;2.83;1.88;;;;;;;19.46;42.98;100314.31;5114003;27;20044;-77
2022/05/04 01:07:37;;;;;;;4.07;2.15;;;;;;;19.51;42.86;100318.91;5114326;28;20063;-75
2022/05/04 01:10:05;;;;;;;4.75;2.35;;;;;;;19.41;42.68;100294.66;5113672;28;20131;-77
2022/05/04 01:12:33;;;;;;;4.75;2.53;;;;;;;19.60;42.80;100325.34;5112641;27;20509;-76
2022/05/04 01:15:00;;;;;;;6.88;2.67;;;;;;;19.60;42.44;100319.66;5113833;27;20097;-78
2022/05/04 01:17:29;;;;;;;3.90;2.40;;;;;;;19.55;42.39;100323.53;5114622;28;20043;-78
2022/05/04 01:19:56;;;;;;;3.22;2.30;;;;;;;19.41;42.67;100312.47;5113953;28;20044;-79
2022/05/04 01:22:24;;;;;;;3.28;2.08;;;;;;;19.46;42.51;100311.47;5105267;27;20074;-79
2022/05/04 01:24:51;;;;;;;3.63;2.22;;;;;;;19.50;42.47;100323.75;5114904;27;20084;-79
2022/05/04 01:27:18;;;;;;;5.68;2.58;;;;;;;19.36;42.63;100297.72;5112373;27;20104;-77
2022/05/04 01:29:46;;;;;;;5.30;3.58;;;;;;;19.34;42.60;100302.91;5114081;27;20049;-76
2022/05/04 01:32:14;;;;;;;4.32;2.40;;;;;;;19.35;42.70;100316.72;5112637;27;20051;-76
2022/05/04 01:34:41;;;;;;;3.42;2.35;;;;;;;19.36;42.87;100318.38;5107469;27;20127;-76
2022/05/04 01:37:12;;;;;;;4.05;2.70;;;;;;;19.44;42.32;100330.78;5114571;28;20054;-76
2022/05/04 01:39:38;;;;;;;3.00;2.25;;;;;;;19.30;42.43;100304.75;5114401;28;20067;-77
2022/05/04 01:42:09;;;;;;;4.65;2.42;;;;;;;19.27;42.53;100299.78;5111087;28;20077;-77
2022/05/04 01:44:36;;;;;;;5.72;2.47;;;;;;;19.23;42.62;100302.50;5111975;27;20043;-77
2022/05/04 01:47:03;;;;;;;6.10;2.58;;;;;;;19.30;42.78;100316.91;5112868;27;20109;-76
2022/05/04 01:49:30;;;;;;;6.85;2.70;;;;;;;19.12;42.79;100285.09;5105383;27;20181;-76
2022/05/04 01:51:57;;;;;;;3.75;2.38;;;;;;;19.11;42.72;100291.06;5113637;27;20070;-77
2022/05/04 01:54:23;;;;;;;5.20;2.50;;;;;;;19.14;42.70;100296.91;5114006;28;20048;-77
2022/05/04 01:56:50;;;;;;;4.38;2.72;;;;;;;19.18;42.84;100306.34;5113070;27;20079;-77
2022/05/04 01:59:17;;;;;;;5.35;2.50;;;;;;;19.12;42.83;100282.25;5113720;28;20134;-77
2022/05/04 02:01:44;;;;;;;4.80;2.70;;;;;;;19.08;42.89;100301.09;5112746;28;20078;-78
2022/05/04 02:04:13;;;;;;;4.32;2.70;;;;;;;18.99;42.97;100272.03;5114312;27;20052;-77
2022/05/04 02:06:40;;;;;;;4.25;2.38;;;;;;;19.07;42.97;100296.59;5112093;28;20080;-77
2022/05/04 02:09:07;;;;;;;6.78;2.78;;;;;;;19.16;42.96;100305.88;5113457;28;20127;-77
2022/05/04 02:11:35;;;;;;;4.80;2.50;;;;;;;18.92;42.97;100277.41;5110358;28;20134;-77
2022/05/04 02:14:03;;;;;;;5.50;2.63;;;;;;;19.02;43.15;100302.47;5113103;27;20123;-76
2022/05/04 02:16:31;;;;;;;7.28;3.53;;;;;;;19.00;43.31;100301.16;5112292;27;20071;-77
2022/05/04 02:18:58;;;;;;;5.00;3.22;;;;;;;18.82;43.11;100284.31;5109861;27;20048;-77
2022/05/04 02:21:26;;;;;;;6.10;2.97;;;;;;;18.84;43.25;100292.47;5113538;27;20124;-77
2022/05/04 02:23:53;;;;;;;4.53;2.78;;;;;;;18.80;43.17;100299.94;5114011;28;20071;-77
2022/05/04 02:26:19;;;;;;;4.45;2.47;;;;;;;18.75;43.66;100305.81;5111634;28;20122;-77
2022/05/04 02:28:46;;;;;;;8.07;3.47;;;;;;;18.69;43.52;100297.47;5110503;28;20161;-77
2022/05/04 02:31:13;;;;;;;3.63;2.42;;;;;;;18.72;43.55;100314.97;5111126;28;20161;-76
2022/05/04 02:33:42;;;;;;;5.22;2.60;;;;;;;18.63;43.37;100298.00;5110863;28;20422;-78
2022/05/04 02:38:54;;;;;;;5.45;2.95;;;;;;;18.70;43.31;100321.78;5112264;27;20047;-78
2022/05/04 02:41:21;;;;;;;5.85;2.63;;;;;;;18.58;43.41;100295.41;5111998;27;20130;-78
2022/05/04 02:43:49;;;;;;;3.78;2.33;;;;;;;18.67;43.31;100305.50;5113462;27;20071;-77
2022/05/04 02:46:18;;;;;;;4.63;3.20;;;;;;;18.65;43.24;100290.03;5113152;27;20134;-78
2022/05/04 02:48:46;;;;;;;7.75;2.90;;;;;;;18.66;43.56;100306.66;5112508;27;20050;-78
2022/05/04 02:51:13;;;;;;;7.15;2.88;;;;;;;18.59;43.21;100292.22;5113098;27;20097;-77
2022/05/04 02:53:41;;;;;;;4.05;2.45;;;;;;;18.56;43.72;100304.19;5112788;27;20094;-79
2022/05/04 02:56:10;;;;;;;4.10;2.50;;;;;;;18.54;43.36;100298.06;5112808;28;20139;-79
2022/05/04 02:58:38;;;;;;;3.63;2.45;;;;;;;18.48;43.23;100302.25;5113363;28;20051;-79
2022/05/04 03:04:09;;;;;;;3.25;2.00;;;;;;;18.44;43.45;100302.13;5112953;28;20533;-79
2022/05/04 03:06:41;;;;;;;2.72;1.80;;;;;;;18.29;43.61;100285.72;5111631;27;20083;-76
2022/05/04 03:09:10;;;;;;;4.72;2.75;;;;;;;18.28;43.07;100278.41;5111765;28;20131;-80
2022/05/04 03:11:55;;;;;;;3.35;2.42;;;;;;;18.32;43.28;100270.06;5110858;28;20071;-80
2022/05/04 03:14:24;;;;;;;6.30;2.10;;;;;;;18.42;43.44;100286.66;5111186;27;20051;-80
2022/05/04 03:16:52;;;;;;;5.57;2.40;;;;;;;18.45;43.26;100297.28;5110816;28;20075;-80
2022/05/04 03:19:20;;;;;;;3.92;2.53;;;;;;;18.37;43.43;100278.38;5111617;27;20054;-79
2022/05/04 03:21:48;;;;;;;2.22;1.38;;;;;;;18.43;43.24;100288.34;5112060;28;20051;-83
2022/05/04 03:24:15;;;;;;;3.88;2.25;;;;;;;18.37;43.06;100295.34;5115122;28;20119;-80
2022/05/04 03:26:42;;;;;;;2.72;2.20;;;;;;;18.05;43.48;100245.91;5123326;27;20118;-80
2022/05/04 03:29:10;;;;;;;2.55;2.20;;;;;;;18.18;43.83;100285.25;5116026;27;20131;-80
2022/05/04 03:31:37;;;;;;;1.20;1.10;;;;;;;17.98;43.98;100274.69;5114827;28;20514;-80
2022/05/04 03:34:04;;;;;;;3.50;0.90;;;;;;;17.96;44.32;100285.50;5115219;28;20043;-80
2022/05/04 03:36:31;;;;;;;5.18;2.53;;;;;;;18.01;43.74;100276.84;5110195;28;20094;-81
2022/05/04 03:38:59;;;;;;;4.10;2.30;;;;;;;17.93;44.04;100269.22;5113782;28;20135;-81
2022/05/04 03:41:26;;;;;;;3.22;2.33;;;;;;;18.03;43.80;100268.88;5113418;28;20190;-80
2022/05/04 03:43:56;;;;;;;5.45;2.65;;;;;;;17.94;43.83;100265.22;5103060;28;20055;-81
2022/05/04 03:46:24;;;;;;;3.15;1.40;;;;;;;17.57;43.73;100242.19;5106560;28;20534;-81
2022/05/04 03:48:54;;;;;;;3.28;2.15;;;;;;;17.82;43.66;100282.06;5114850;28;20054;-76
2022/05/04 03:51:22;;;;;;;1.05;0.90;;;;;;;17.71;44.00;100273.09;5117655;28;20043;-77
2022/05/04 03:53:51;;;;;;;1.40;1.23;;;;;;;17.84;43.82;100279.72;5120798;28;20131;-77
2022/05/04 03:56:19;;;;;;;1.23;1.13;;;;;;;17.93;43.41;100281.34;5113442;28;20051;-78
2022/05/04 03:58:46;;;;;;;5.70;2.33;;;;;;;17.71;43.49;100265.44;5115680;28;20184;-77
2022/05/04 04:01:13;;;;;;;3.63;2.00;;;;;;;17.67;43.71;100258.78;5114955;28;20126;-77
2022/05/04 04:03:40;;;;;;;10.40;2.67;;;;;;;17.66;43.58;100239.38;5108739;28;20079;-76
2022/05/04 04:06:07;;;;;;;2.05;1.63;;;;;;;17.99;43.27;100290.50;5109817;28;20476;-75
2022/05/04 04:08:34;;;;;;;3.25;1.85;;;;;;;17.90;43.43;100293.31;5118522;27;20083;-74
2022/05/04 04:11:01;;;;;;;5.57;2.00;;;;;;;17.87;43.30;100265.75;5118615;27;20075;-74
2022/05/04 04:13:28;;;;;;;3.60;2.08;;;;;;;17.98;43.06;100288.81;5118641;27;20048;-74
2022/05/04 04:15:56;;;;;;;6.50;2.95;;;;;;;18.06;43.15;100289.97;5117431;28;20048;-75
2022/05/04 04:18:24;;;;;;;3.95;2.00;;;;;;;17.97;43.23;100281.50;5117793;27;20517;-75
2022/05/04 04:23:40;;;;;;;3.30;2.13;;;;;;;18.06;42.64;100302.09;5118705;27;20075;-77
2022/05/04 04:26:08;;;;;;;1.17;0.88;;;;;;;18.08;42.86;100294.09;5117899;28;20117;-77
2022/05/04 04:28:38;;;;;;;3.33;2.00;;;;;;;17.97;42.96;100298.47;5119634;28;20075;-77
2022/05/04 04:31:05;;;;;;;;;;;;;;;17.83;43.29;100300.66;5108830;27;20486;-76
2022/05/04 04:33:32;;;;;;;7.55;2.00;;;;;;;17.90;42.69;100304.63;5118457;28;19969;-75
2022/05/04 04:36:00;;;;;;;3.53;2.20;;;;;;;17.88;42.98;100300.47;5115534;28;20118;-76
2022/05/04 04:38:28;;;;;;;2.17;1.40;;;;;;;17.75;43.22;100286.19;5117432;27;20119;-79
2022/05/04 04:40:58;;;;;;;4.10;2.58;;;;;;;17.72;42.64;100275.56;5112814;27;20075;-78
2022/05/04 04:43:24;;;;;;;2.10;1.60;;;;;;;17.60;42.93;100258.47;5114846;27;20133;-77
2022/05/04 04:45:51;;;;;;;2.42;1.85;;;;;;;17.65;42.76;100286.53;5117066;27;20132;-79
2022/05/04 04:48:19;;;;;;;4.88;2.78;;;;;;;17.85;43.22;100309.63;5113642;28;20071;-80
2022/05/04 04:50:46;;;;;;;4.22;2.75;;;;;;;17.85;42.64;100298.34;5114620;28;20063;-80
2022/05/04 04:53:14;;;;;;;5.40;2.47;;;;;;;17.91;42.67;100309.09;5113801;27;20067;-78
2022/05/04 04:55:43;;;;;;;2.50;1.45;;;;;;;17.66;42.99;100293.84;5117062;27;20084;-78
2022/05/04 04:58:10;;;;;;;3.42;2.22;;;;;;;17.66;43.08;100285.38;5121249;27;20044;-77
2022/05/04 05:00:37;;;;;;;3.10;2.20;;;;;;;17.67;42.72;100280.53;5149471;27;20090;-81
2022/05/04 05:03:04;;;;;;;4.15;2.53;;;;;;;17.82;42.64;100315.97;5118343;28;20082;-81
2022/05/04 05:05:32;;;;;;;2.80;1.90;;;;;;;17.57;42.79;100297.84;5116201;27;20047;-80
2022/05/04 05:07:59;;;;;;;2.80;1.77;;;;;;;17.69;42.63;100321.41;5147100;27;20086;-79
2022/05/04 05:10:25;;;;;;;5.57;2.50;;;;;;;17.61;42.66;100325.09;5151657;27;20083;-82
2022/05/04 05:12:52;;;;;;;4.53;2.28;;;;;;;17.42;42.59;100316.13;5119379;27;20048;-81
2022/05/04 05:18:05;;;;;;;2.35;1.70;;;;;;;17.34;42.93;100314.97;5117028;27;20044;-79
2022/05/04 05:20:32;;;;;;;2.38;1.80;;;;;;;17.69;42.39;100338.34;5097491;28;20145;-75
2022/05/04 05:23:01;;;;;;;4.50;2.38;;;;;;;17.53;42.29;100325.91;5116945;27;20083;-76
2022/05/04 05:25:30;;;;;;;5.10;3.00;;;;;;;17.65;42.27;100343.03;5114126;27;20054;-76
2022/05/04 05:27:57;;;;;;;4.80;1.70;;;;;;;17.49;42.20;100339.03;5115040;27;20146;-77
2022/05/04 05:30:24;;;;;;;4.65;2.22;;;;;;;17.37;42.70;100316.31;5113432;28;20078;-76
2022/05/04 05:32:51;;;;;;;4.25;2.45;;;;;;;17.62;42.37;100354.16;5116292;27;20459;-77
2022/05/04 05:35:18;;;;;;;4.82;1.65;;;;;;;17.51;42.26;100345.19;5117818;27;20107;-81
2022/05/04 05:37:45;;;;;;;3.88;2.55;;;;;;;17.57;42.53;100340.19;5117419;28;20509;-82
2022/05/04 05:40:16;;;;;;;6.25;2.17;;;;;;;17.79;42.41;100359.81;5100097;28;20053;-74
2022/05/04 05:42:44;;;;;;;3.85;2.10;;;;;;;17.61;42.31;100336.38;5114810;27;20437;-71
2022/05/04 05:45:11;;;;;;;5.25;2.50;;;;;;;17.51;42.50;100362.13;5112011;27;20118;-72
2022/05/04 05:47:41;;;;;;;3.80;2.28;;;;;;;17.53;42.47;100354.13;5120496;27;20078;-76
2022/05/04 05:50:10;;;;;;;4.78;3.10;;;;;;;17.79;42.00;100364.63;5122798;27;20076;-73
2022/05/04 05:52:37;;;;;;;4.30;2.47;;;;;;;17.74;42.19;100357.13;5115572;27;20125;-74
2022/05/04 05:55:04;;;;;;;4.53;2.20;;;;;;;17.83;41.88;100365.63;5111655;28;20127;-73
2022/05/04 05:57:32;;;;;;;6.60;2.47;;;;;;;17.80;42.03;100384.06;5112653;28;20124;-74
2022/05/04 06:00:01;;;;;;;5.85;2.53;;;;;;;17.89;41.85;100376.44;5111810;27;20057;-74
2022/05/04 06:02:28;;;;;;;3.47;2.22;;;;;;;18.04;41.75;100389.19;5138638;27;20058;-76
2022/05/04 06:04:56;;;;;;;4.13;2.45;;;;;;;18.20;41.79;100390.31;5112846;27;20036;-75
2022/05/04 06:07:22;;;;;;;6.40;2.13;;;;;;;18.07;42.04;100377.22;5113916;27;20079;-76
2022/05/04 06:09:50;;;;;;;4.32;2.28;;;;;;;18.27;41.45;100380.50;5115180;27;20566;-75
2022/05/04 06:12:17;;;;;;;5.75;2.75;;;;;;;18.52;42.31;100427.66;5113825;27;20142;-76
2022/05/04 06:14:44;;;;;;;6.32;3.85;;;;;;;18.40;42.75;100407.75;5112950;27;20556;-75
2022/05/04 06:17:12;;;;;;;5.63;3.17;;;;;;;18.58;42.58;100408.53;5110911;28;20086;-76
2022/05/04 06:19:39;;;;;;;9.15;4.82;;;;;;;18.75;43.03;100430.28;5114046;28;20047;-76
2022/05/04 06:22:06;;;;;;;7.78;4.40;;;;;;;18.80;43.19;100438.56;5111963;27;20078;-79
2022/05/04 06:24:33;;;;;;;5.43;3.28;;;;;;;18.77;43.83;100423.13;5112180;27;20044;-77
2022/05/04 06:27:00;;;;;;;5.75;4.13;;;;;;;18.89;43.61;100428.88;5113650;27;20086;-77
2022/05/04 06:34:06;;;;;;;4.32;3.28;;;;;;;19.03;42.80;100428.66;5112666;27;20083;-77
2022/05/04 06:35:17;;;;;;;5.45;3.70;;;;;;;19.51;42.83;100464.19;5074269;27;20075;-76
2022/05/04 06:37:45;;;;;;;6.22;3.40;;;;;;;19.76;42.65;100459.56;5105027;28;20117;-77
2022/05/04 06:40:12;;;;;;;8.65;3.83;;;;;;;19.96;42.57;100454.22;5113739;28;20107;-79
2022/05/04 06:42:39;;;;;;;9.00;4.30;;;;;;;20.21;42.08;100455.19;5108080;28;20047;-80
2022/05/04 06:45:07;;;;;;;3.38;2.40;;;;;;;20.43;40.44;100468.13;5111712;28;20114;-80
2022/05/04 06:47:34;;;;;;;3.35;2.08;;;;;;;20.20;39.80;100422.31;5114015;28;20082;-80
2022/05/04 06:50:05;;;;;;;5.68;3.03;;;;;;;20.85;39.33;100462.34;5113895;28;20075;-79
2022/05/04 06:52:32;;;;;;;3.72;2.70;;;;;;;21.05;39.08;100469.94;5110296;28;20094;-79
2022/05/04 06:54:59;;;;;;;6.88;3.55;;;;;;;21.03;38.63;100453.28;5099399;28;20131;-79
2022/05/04 06:57:26;;;;;;;6.40;2.63;;;;;;;21.36;38.40;100469.38;5111268;28;20549;-80
2022/05/04 06:59:54;;;;;;;5.72;3.67;;;;;;;21.50;37.88;100466.19;5112513;28;20075;-80
2022/05/04 07:02:21;;;;;;;5.63;3.10;;;;;;;21.59;37.61;100449.84;5112953;28;20047;-80
2022/05/04 07:04:48;;;;;;;5.78;2.30;;;;;;;21.57;37.15;100445.69;5113936;28;20094;-82
2022/05/04 07:07:15;;;;;;;4.57;2.95;;;;;;;21.92;36.95;100466.72;5114877;28;20078;-78
2022/05/04 07:09:42;;;;;;;4.53;3.05;;;;;;;22.38;36.74;100472.97;5113530;28;20050;-85
2022/05/04 07:12:09;;;;;;;4.65;3.10;;;;;;;22.61;36.44;100463.84;5113839;28;20124;-85
2022/05/04 07:14:36;;;;;;;4.20;2.35;;;;;;;22.87;36.72;100486.94;5110370;28;20067;-86
2022/05/04 07:17:03;;;;;;;4.38;2.80;;;;;;;22.64;35.46;100491.59;5108932;28;20075;-85
2022/05/04 07:19:30;;;;;;;7.50;2.70;;;;;;;22.60;35.39;100470.75;5147061;27;20047;-85
2022/05/04 07:21:57;;;;;;;3.50;2.72;;;;;;;22.89;35.23;100490.25;5113552;28;20075;-86
2022/05/04 07:24:24;;;;;;;7.32;2.78;;;;;;;23.11;35.10;100479.44;5111815;28;20083;-86
2022/05/04 07:26:51;;;;;;;7.00;2.65;;;;;;;23.53;34.85;100476.03;5112986;28;20071;-86
2022/05/04 07:29:18;;;;;;;4.05;1.88;;;;;;;23.44;34.22;100466.84;5114117;28;20148;-86
2022/05/04 07:31:44;;;;;;;7.53;2.97;;;;;;;22.90;33.45;100473.97;5111961;28;20086;-85
2022/05/04 07:34:17;;;;;;;3.55;2.10;;;;;;;22.60;33.72;100473.59;5100581;28;20122;-85
2022/05/04 07:36:45;;;;;;;5.53;2.38;;;;;;;22.64;34.13;100486.72;5113601;28;20406;-85
2022/05/04 07:42:21;;;;;;;2.40;1.98;;;;;;;22.46;33.88;100477.69;5113156;28;20100;-86
2022/05/04 07:44:45;;;;;;;4.75;2.95;;;;;;;22.78;33.70;100494.81;5115077;28;20097;-87
2022/05/04 07:47:12;;;;;;;7.10;2.13;;;;;;;23.04;33.63;100507.72;5114730;28;20131;-86
2022/05/04 07:49:38;;;;;;;7.45;2.60;;;;;;;22.83;33.05;100497.38;5114378;28;20139;-86
2022/05/04 07:52:05;;;;;;;2.92;2.13;;;;;;;22.74;33.49;100479.66;5111226;28;20096;-86
2022/05/04 07:54:32;;;;;;;3.90;2.22;;;;;;;22.98;33.38;100483.59;5113994;28;20079;-85
2022/05/04 07:56:59;;;;;;;3.45;2.03;;;;;;;23.27;33.49;100491.66;5112050;28;20138;-86
2022/05/04 07:59:26;;;;;;;6.78;2.92;;;;;;;23.27;33.19;100448.94;5116005;28;20138;-86
2022/05/04 08:04:38;;;;;;;4.47;1.85;;;;;;;23.91;32.70;100497.31;5108631;28;20048;-85
2022/05/04 08:07:06;;;;;;;3.22;1.90;;;;;;;23.27;32.41;100514.44;5110072;27;20100;-86
2022/05/04 08:09:36;;;;;;;2.17;1.23;;;;;;;22.82;32.04;100512.81;5115914;27;20047;-85
2022/05/04 08:12:06;;;;;;;5.55;2.55;;;;;;;22.85;32.50;100503.56;5113782;27;20047;-86
2022/05/04 08:14:33;;;;;;;6.50;2.47;;;;;;;22.89;33.07;100507.31;5113240;28;20493;-87
2022/05/04 08:17:00;;;;;;;2.17;1.60;;;;;;;22.77;32.32;100467.56;5114952;28;20071;-87
2022/05/04 08:19:27;;;;;;;6.07;2.20;;;;;;;22.98;32.33;100503.53;5115567;27;20453;-86
2022/05/04 08:21:56;;;;;;;5.70;1.20;;;;;;;22.85;32.05;100517.78;5113917;27;20160;-86
2022/05/04 08:24:23;;;;;;;3.53;1.95;;;;;;;23.10;32.64;100500.56;5110138;27;20043;-88
2022/05/04 08:26:50;;;;;;;2.60;1.92;;;;;;;23.26;31.97;100514.84;5112808;28;20082;-88
2022/05/04 08:29:17;;;;;;;4.47;2.03;;;;;;;23.34;31.87;100508.94;5115801;27;20127;-87
2022/05/04 08:31:44;;;;;;;3.40;2.10;;;;;;;23.50;31.77;100513.81;5112266;28;20073;-86
2022/05/04 08:34:11;;;;;;;3.92;2.30;;;;;;;23.42;31.74;100513.63;5111010;27;20082;-85
2022/05/04 08:36:38;;;;;;;4.65;2.10;;;;;;;23.53;31.68;100504.53;5112698;28;20505;-87
2022/05/04 08:39:09;;;;;;;5.38;2.20;;;;;;;24.07;31.78;100518.06;5120980;28;20047;-84
2022/05/04 08:41:41;;;;;;;2.78;1.95;;;;;;;24.10;31.51;100520.13;5125568;28;20044;-84
2022/05/04 08:44:09;;;;;;;1.65;1.38;;;;;;;23.88;30.96;100513.94;5127043;27;20083;-84
2022/05/04 08:46:39;;;;;;;3.10;2.05;;;;;;;23.78;30.81;100511.66;5111754;27;20044;-86
2022/05/04 08:49:06;;;;;;;;;;;;;;;24.02;31.74;100524.03;5110070;28;20131;-87
2022/05/04 08:51:36;;;;;;;7.68;2.35;;;;;;;24.49;31.02;100503.06;5112657;27;20010;-87
2022/05/04 08:54:04;;;;;;;3.65;1.90;;;;;;;24.77;30.63;100532.19;5111564;28;20123;-88
2022/05/04 08:56:31;;;;;;;6.18;2.25;;;;;;;24.98;30.52;100531.78;5107709;27;20065;-88
2022/05/04 08:59:01;;;;;;;14.88;7.22;;;;;;;25.10;30.11;100522.22;5115194;27;20086;-88
2022/05/04 09:01:28;;;;;;;6.30;2.40;;;;;;;25.30;30.28;100508.72;5113723;27;20082;-87
2022/05/04 09:03:58;;;;;;;5.35;2.67;;;;;;;25.92;29.52;100535.09;5114530;28;20520;-87
2022/05/04 09:06:26;;;;;;;;;;;;;;;26.29;30.33;100527.81;5117190;28;20044;-87
2022/05/04 09:09:03;;;;;;;4.18;2.17;;;;;;;26.67;29.35;100530.41;5112183;28;19986;-89
2022/05/04 09:11:32;;;;;;;6.68;2.67;;;;;;;25.84;29.04;100519.00;5112718;28;20043;-87
2022/05/04 09:14:00;;;;;;;2.60;2.30;;;;;;;25.45;29.05;100532.66;5110105;27;20048;-87
2022/05/04 09:16:32;;;;;;;5.40;2.20;;;;;;;25.75;29.44;100530.69;5116104;27;20048;-86
2022/05/04 09:19:01;;;;;;;5.28;2.20;;;;;;;26.29;29.11;100536.41;5112826;28;20052;-88
2022/05/04 09:21:28;;;;;;;4.43;2.58;;;;;;;26.76;28.55;100546.44;5113779;28;20145;-87
2022/05/04 09:23:55;;;;;;;5.00;3.03;;;;;;;26.74;27.85;100558.31;5117416;28;20086;-88
2022/05/04 09:26:23;;;;;;;5.00;2.08;;;;;;;26.51;28.22;100543.28;5110964;28;20134;-88
2022/05/04 09:28:52;;;;;;;3.00;1.90;;;;;;;26.37;27.61;100549.63;5113207;27;20175;-89
2022/05/04 09:31:24;;;;;;;4.50;2.13;;;;;;;26.43;27.97;100542.34;5115914;27;20391;-88
2022/05/04 09:33:57;;;;;;;6.00;3.47;;;;;;;27.02;28.09;100539.78;5115331;28;20054;-87
2022/05/04 09:36:32;;;;;;;7.05;2.40;;;;;;;27.73;27.75;100548.28;5110010;28;20035;-89
2022/05/04 09:45:14;;;;;;;10.23;3.45;;;;;;;27.87;27.42;100557.00;5123932;28;20062;-85
2022/05/04 09:47:47;;;;;;;5.13;2.75;;;;;;;28.47;27.06;100547.94;5121804;28;20130;-86
2022/05/04 09:50:17;;;;;;;3.40;2.03;;;;;;;28.75;27.10;100527.16;5118865;27;20108;-86
2022/05/04 09:52:50;;;;;;;5.05;2.67;;;;;;;28.75;26.61;100538.66;5116970;27;20054;-86
2022/05/04 09:55:26;;;;;;;4.63;2.67;;;;;;;28.60;26.50;100553.34;5119915;27;20054;-86
2022/05/04 09:57:55;;;;;;;4.00;2.72;;;;;;;28.79;26.46;100530.03;5124605;28;20070;-86
2022/05/04 10:00:26;;;;;;;8.40;2.15;;;;;;;29.23;25.89;100552.75;5130668;27;20079;-86
2022/05/04 10:02:56;;;;;;;2.63;2.00;;;;;;;29.12;25.86;100537.53;5117645;28;20051;-86
2022/05/04 10:05:23;;;;;;;4.30;2.38;;;;;;;29.10;25.78;100553.56;5108732;28;20054;-87
2022/05/04 10:07:52;;;;;;;4.25;2.80;;;;;;;29.03;26.17;100517.00;5113643;27;20090;-87
2022/05/04 10:10:21;;;;;;;5.97;3.53;;;;;;;29.60;26.05;100550.75;5113489;28;20051;-85
2022/05/04 10:12:48;;;;;;;4.45;2.90;;;;;;;29.91;25.97;100570.06;5117880;27;20058;-86
2022/05/04 10:15:18;;;;;;;3.58;2.55;;;;;;;30.17;25.42;100557.28;5114878;27;20464;-87
2022/05/04 10:17:51;;;;;;;4.80;2.72;;;;;;;29.97;25.12;100551.13;5114169;28;20039;-88
2022/05/04 10:20:21;;;;;;;3.72;2.60;;;;;;;29.62;24.71;100556.94;5109702;28;20143;-87
2022/05/04 10:23:02;;;;;;;6.65;2.47;;;;;;;29.51;25.31;100551.97;5112744;27;20047;-87
2022/05/04 10:25:34;;;;;;;3.58;2.80;;;;;;;29.86;25.20;100544.56;5109243;27;20458;-86
2022/05/04 10:28:06;;;;;;;2.85;2.08;;;;;;;30.17;25.12;100524.78;5112742;27;20583;-87
2022/05/04 10:30:34;;;;;;;3.45;2.22;;;;;;;30.37;25.26;100540.38;5114890;27;20452;-86
2022/05/04 10:33:06;;;;;;;4.53;2.33;;;;;;;30.66;25.11;100546.84;5113420;28;20047;-86
2022/05/04 10:35:35;;;;;;;4.03;2.30;;;;;;;30.98;25.14;100560.31;5113581;27;20066;-87
2022/05/04 10:38:02;;;;;;;2.42;2.17;;;;;;;31.16;24.80;100563.91;5141891;27;20055;-87
2022/05/04 10:40:42;;;;;;;5.03;2.17;;;;;;;31.38;24.79;100549.34;5111534;28;20154;-88
2022/05/04 10:43:09;;;;;;;5.68;2.50;;;;;;;31.51;24.69;100561.22;5109416;28;20139;-86
2022/05/04 10:45:38;;;;;;;4.90;2.10;;;;;;;31.49;24.41;100561.66;5114096;27;20573;-86
2022/05/04 10:48:18;;;;;;;4.93;2.22;;;;;;;31.53;24.56;100552.97;5111034;28;20074;-86
2022/05/04 10:50:57;;;;;;;4.68;2.20;;;;;;;31.64;24.52;100553.69;5111498;27;20134;-87
2022/05/04 10:53:30;;;;;;;4.60;2.78;;;;;;;31.68;24.97;100545.81;5107220;27;20086;-86
2022/05/04 10:56:04;;;;;;;3.83;2.30;;;;;;;31.72;24.51;100549.50;5103691;28;20481;-85
2022/05/04 10:58:38;;;;;;;4.93;2.80;;;;;;;31.54;23.54;100561.19;5126011;27;20123;-86
2022/05/04 11:01:23;;;;;;;3.38;2.22;;;;;;;31.37;24.66;100542.78;5110968;27;20086;-87
2022/05/04 11:04:22;;;;;;;2.97;2.20;;;;;;;31.44;24.04;100553.44;5143817;27;20402;-86
2022/05/04 11:06:52;;;;;;;4.85;2.78;;;;;;;31.58;24.19;100555.41;5108797;27;20432;-86
2022/05/04 11:09:32;;;;;;;3.63;2.60;;;;;;;31.75;24.01;100548.63;5111405;28;20501;-87
2022/05/04 11:12:01;;;;;;;5.38;2.95;;;;;;;31.80;24.11;100542.41;5109491;27;20535;-87
2022/05/04 11:14:29;;;;;;;3.55;2.40;;;;;;;31.92;23.21;100546.06;5109117;27;20047;-88
2022/05/04 11:16:57;;;;;;;3.15;2.40;;;;;;;31.92;23.78;100540.28;5111502;27;20048;-87
2022/05/04 11:19:27;;;;;;;3.38;2.15;;;;;;;32.04;23.84;100542.63;5112793;28;20104;-88
2022/05/04 11:21:54;;;;;;;;;;;;;;;32.12;24.81;100549.97;5111226;28;20481;-87
2022/05/04 11:24:21;;;;;;;3.67;2.45;;;;;;;32.23;23.54;100544.88;5108163;28;20444;-85
2022/05/04 11:26:52;;;;;;;3.92;2.65;;;;;;;32.36;23.61;100535.69;5138866;27;20142;-87
2022/05/04 11:29:29;;;;;;;4.20;2.50;;;;;;;32.83;23.32;100547.50;5112278;28;20071;-85
2022/05/04 11:32:06;;;;;;;4.32;2.67;;;;;;;32.89;23.29;100551.53;5105987;28;20127;-85
2022/05/04 11:34:38;;;;;;;4.80;2.80;;;;;;;32.85;23.23;100553.66;5109993;28;20113;-86
2022/05/04 11:37:07;;;;;;;4.10;2.72;;;;;;;33.01;22.64;100548.09;5112392;28;20146;-84
2022/05/04 11:39:35;;;;;;;5.95;2.50;;;;;;;32.90;22.21;100544.53;5106484;28;20068;-83
2022/05/04 11:42:05;;;;;;;3.97;2.72;;;;;;;32.99;22.41;100539.03;5111044;28;20126;-85
2022/05/04 11:44:32;;;;;;;4.57;2.90;;;;;;;33.03;22.90;100526.16;5108295;28;20140;-85
2022/05/04 11:47:00;;;;;;;5.15;2.75;;;;;;;33.16;22.89;100526.38;5107371;28;20067;-85
2022/05/04 11:49:34;;;;;;;5.10;2.55;;;;;;;33.34;22.77;100526.13;5107681;28;20134;-85
2022/05/04 11:52:04;;;;;;;5.68;2.30;;;;;;;33.43;22.53;100520.56;5108159;28;20048;-83
2022/05/04 11:54:32;;;;;;;3.17;2.25;;;;;;;33.80;22.11;100530.31;5092416;28;20052;-84
2022/05/04 11:56:58;;;;;;;3.67;2.03;;;;;;;34.22;21.42;100532.88;5113970;28;20465;-84
2022/05/04 11:59:31;;;;;;;5.32;2.88;;;;;;;34.11;20.82;100519.41;5111991;28;20135;-86
2022/05/04 12:01:59;;;;;;;2.60;2.13;;;;;;;34.46;20.52;100530.72;5114227;28;20205;-87